Emerald Coast — WDC9127 — position and weather

sailwx.info

Track history (hours):
 
Tides and Currents Weather Stations Pressure Air Temp Water Temp Dewpoint Dewpoint Depression Visibility Wind Speed Wind Dir Waves Ship Positions

Emerald Coast

Owner: Dann Marine Towing, LC, Chesapeake City, MD. More information available from US FCC via Universal Licensing System and Coast Guard Vessel Documentation Center.

Last reported at 2014-Oct-30 01:34 UTC. Time now 2014-Oct-30 13:06 UTC.
Position N 40°39' W 074°02'.

; draft 3 m.

Type: Towing. MMSI: 367097920.

Date/timePositionNaut miles runAvg speedWind from/ knotsBaromVisibWave heightAir tempDewpointWater temp
2014-Oct-30 01:34N 40°39' W 074°02'4 4.2
2014-Oct-30 00:33N 40°42' W 073°59'8 6.6
2014-Oct-29 23:25N 40°48' W 073°52'10 4.4
2014-Oct-29 21:09N 40°51' W 073°40'1 0.1
2014-Oct-29 02:34N 40°52' W 073°41'0 0.0
2014-Oct-29 01:32N 40°52' W 073°41'0 0.0
2014-Oct-29 00:33N 40°52' W 073°41'0 0.0
2014-Oct-28 23:33N 40°52' W 073°41'0 0.0
2014-Oct-28 22:33N 40°52' W 073°41'3 0.9
2014-Oct-28 19:32N 40°52' W 073°45'5 4.5
2014-Oct-28 18:26N 40°48' W 073°49'4 4.8
2014-Oct-28 17:33N 40°47' W 073°55'4 4.5
2014-Oct-28 16:33N 40°43' W 073°58'5 5.0
2014-Oct-28 15:34N 40°39' W 074°02'5 5.3
2014-Oct-28 14:33N 40°34' W 074°00'5 5.1
2014-Oct-28 13:33N 40°34' W 073°54'5 4.5
2014-Oct-28 12:34N 40°36' W 073°48'3 2.8
2014-Oct-28 11:28N 40°38' W 073°45'0 0.0
2014-Oct-28 10:34N 40°38' W 073°45'0 0.0
2014-Oct-28 09:30N 40°38' W 073°45'0 0.0
2014-Oct-28 08:33N 40°38' W 073°45'0 0.0
2014-Oct-28 07:34N 40°38' W 073°45'0 0.0
2014-Oct-28 06:33N 40°38' W 073°45'0 0.0
2014-Oct-28 05:34N 40°38' W 073°45'0 0.0
2014-Oct-28 04:33N 40°38' W 073°45'0 0.0
2014-Oct-28 03:33N 40°38' W 073°45'0 0.0
2014-Oct-28 01:28N 40°38' W 073°45'0 0.0
2014-Oct-28 00:24N 40°38' W 073°45'0 0.0
2014-Oct-27 23:28N 40°38' W 073°45'0 0.0
2014-Oct-27 21:33N 40°38' W 073°45'0 0.0
2014-Oct-27 20:18N 40°38' W 073°45'0 0.0
2014-Oct-27 19:20N 40°38' W 073°45'0 0.0
2014-Oct-27 18:24N 40°38' W 073°45'0 0.0
2014-Oct-27 17:24N 40°38' W 073°45'5 2.6
2014-Oct-27 15:28N 40°35' W 073°51'5 4.0
2014-Oct-27 14:14N 40°34' W 073°57'3 4.8
2014-Oct-27 13:33N 40°34' W 074°01'5 4.8
2014-Oct-27 12:33N 40°39' W 074°03'2 1.6
2014-Oct-27 11:33N 40°40' W 074°04'0 0.0
2014-Oct-27 10:33N 40°40' W 074°04'0 0.0
2014-Oct-27 09:33N 40°40' W 074°04'0 0.0
2014-Oct-27 08:33N 40°40' W 074°04'0 0.0
2014-Oct-27 07:33N 40°40' W 074°04'0 0.0
2014-Oct-27 06:33N 40°40' W 074°04'0 0.0
2014-Oct-27 05:33N 40°40' W 074°04'0 0.0
2014-Oct-27 04:33N 40°40' W 074°04'0 0.0
2014-Oct-27 03:33N 40°40' W 074°04'0 0.0
2014-Oct-27 02:33N 40°40' W 074°04'0 0.5
2014-Oct-27 01:33N 40°40' W 074°05'0 0.0
2014-Oct-27 00:33N 40°40' W 074°05'3 2.8
2014-Oct-26 23:33N 40°40' W 074°01'2 1.9
2014-Oct-26 22:33N 40°39' W 074°03'0 0.0
2014-Oct-26 21:33N 40°39' W 074°03'0 0.0
2014-Oct-26 20:33N 40°39' W 074°03'0 0.0
2014-Oct-26 19:33N 40°39' W 074°03'0 0.0
2014-Oct-26 18:33N 40°39' W 074°03'0 0.0
2014-Oct-26 17:33N 40°39' W 074°03'3 2.8
2014-Oct-26 16:33N 40°39' W 074°06'2 0.9
2014-Oct-26 14:32N 40°39' W 074°09'2 2.1
2014-Oct-26 13:33N 40°41' W 074°09'1 1.4
2014-Oct-26 12:33N 40°40' W 074°09'3 2.9
2014-Oct-26 11:33N 40°39' W 074°05'0 0.2
2014-Oct-26 10:33N 40°39' W 074°05'0 0.0
2014-Oct-26 09:33N 40°39' W 074°05'1 1.2
2014-Oct-26 08:33N 40°39' W 074°07'3 3.1
2014-Oct-26 07:33N 40°41' W 074°09'0 0.0
2014-Oct-26 06:07N 40°41' W 074°09'0 0.0
2014-Oct-26 05:32N 40°41' W 074°09'0 0.0
2014-Oct-26 03:31N 40°41' W 074°09'0 0.0
2014-Oct-26 02:33N 40°41' W 074°09'0 0.0
2014-Oct-26 01:33N 40°41' W 074°09'1 0.1
2014-Oct-25 21:28N 40°41' W 074°09'4 3.4
2014-Oct-25 20:24N 40°39' W 074°05'3 3.3
2014-Oct-25 19:26N 40°40' W 074°00'5 2.5
2014-Oct-25 17:17N 40°39' W 074°07'3 1.9
2014-Oct-25 15:33N 40°38' W 074°12'1 0.4
2014-Oct-25 14:07N 40°38' W 074°12'1 2.2
2014-Oct-25 13:33N 40°39' W 074°11'3 2.4
2014-Oct-25 12:14N 40°39' W 074°07'1 1.6
2014-Oct-25 11:33N 40°39' W 074°06'3 3.1
2014-Oct-25 10:33N 40°41' W 074°02'5 4.9
2014-Oct-25 09:33N 40°45' W 073°58'5 5.2
2014-Oct-25 08:33N 40°48' W 073°53'5 5.5
2014-Oct-25 07:33N 40°50' W 073°46'4 4.2
2014-Oct-25 06:33N 40°53' W 073°42'1 0.0
2014-Oct-24 13:19N 40°52' W 073°41'9 0.4
2014-Oct-23 13:32N 40°48' W 073°52'5 5.5
2014-Oct-23 12:33N 40°45' W 073°58'4 4.0
2014-Oct-23 11:33N 40°41' W 074°00'3 2.8
2014-Oct-23 10:33N 40°39' W 074°02'3 3.4
2014-Oct-23 09:33N 40°39' W 074°07'4 4.2
2014-Oct-23 08:33N 40°38' W 074°12'0 0.1
2014-Oct-23 07:33N 40°38' W 074°12'6 0.6
2014-Oct-22 22:33N 40°39' W 074°05'2 1.7
2014-Oct-22 21:33N 40°39' W 074°07'3 2.7
2014-Oct-22 20:33N 40°41' W 074°09'1 0.6
2014-Oct-22 19:33N 40°41' W 074°10'0 0.0
2014-Oct-22 18:33N 40°41' W 074°10'0 0.0
2014-Oct-22 17:33N 40°41' W 074°10'0 0.0
2014-Oct-22 16:33N 40°41' W 074°10'0 0.0
2014-Oct-22 15:33N 40°41' W 074°10'0 0.0
2014-Oct-22 14:33N 40°41' W 074°10'0 0.0
2014-Oct-22 13:33N 40°41' W 074°10'0 0.0
2014-Oct-22 12:33N 40°41' W 074°10'0 0.0
2014-Oct-22 11:33N 40°41' W 074°10'0 0.0
2014-Oct-22 10:33N 40°41' W 074°10'0 0.0
2014-Oct-22 09:33N 40°41' W 074°10'3 3.0
2014-Oct-22 08:33N 40°39' W 074°08'1 0.4
2014-Oct-22 07:11N 40°39' W 074°07'0 0.0
2014-Oct-22 06:33N 40°39' W 074°07'0 0.0
2014-Oct-22 05:10N 40°39' W 074°07'0 0.0
2014-Oct-22 03:06N 40°39' W 074°07'0 0.0
2014-Oct-22 02:33N 40°39' W 074°07'0 0.0
2014-Oct-22 01:33N 40°39' W 074°07'0 0.0
2014-Oct-22 00:33N 40°39' W 074°07'0 0.0
2014-Oct-21 23:33N 40°39' W 074°07'1 1.3
2014-Oct-21 22:33N 40°39' W 074°05'2 2.4
2014-Oct-21 21:33N 40°40' W 074°03'0 0.0
2014-Oct-21 20:33N 40°40' W 074°03'0 0.1
2014-Oct-21 19:33N 40°40' W 074°03'2 1.9
2014-Oct-21 18:33N 40°40' W 074°00'0 0.0
2014-Oct-21 17:33N 40°40' W 074°00'0 0.0
2014-Oct-21 16:33N 40°40' W 074°00'0 0.3
2014-Oct-21 15:33N 40°40' W 074°00'0 0.3
2014-Oct-21 14:33N 40°40' W 074°00'0 0.0
2014-Oct-21 13:33N 40°40' W 074°00'0 0.3
2014-Oct-21 12:33N 40°40' W 074°00'0 0.0
2014-Oct-21 11:33N 40°40' W 074°00'0 0.0
2014-Oct-21 10:33N 40°40' W 074°00'0 0.0
2014-Oct-21 09:33N 40°40' W 074°00'1 0.6
2014-Oct-21 08:33N 40°40' W 074°01'5 5.4
2014-Oct-21 07:33N 40°39' W 074°08'3 2.8
2014-Oct-21 06:31N 40°41' W 074°09'0 0.0
2014-Oct-21 05:23N 40°41' W 074°09'0 0.0
2014-Oct-21 04:33N 40°41' W 074°09'0 0.0
2014-Oct-21 02:31N 40°41' W 074°09'0 0.0
2014-Oct-21 01:29N 40°41' W 074°09'0 0.0
2014-Oct-21 00:30N 40°41' W 074°09'0 0.0
2014-Oct-20 22:32N 40°41' W 074°09'0 0.0
2014-Oct-20 20:04N 40°41' W 074°09'0 0.0
2014-Oct-20 19:29N 40°41' W 074°09'0 0.0
2014-Oct-20 18:26N 40°41' W 074°09'1 1.4
2014-Oct-20 17:33N 40°40' W 074°08'2 0.3
2014-Oct-20 10:30N 40°39' W 074°07'4 4.7
2014-Oct-20 09:33N 40°36' W 074°12'3 3.5
2014-Oct-20 08:33N 40°39' W 074°09'6 5.8
2014-Oct-20 07:33N 40°36' W 074°02'5 5.3
2014-Oct-20 06:33N 40°34' W 073°56'5 5.3
2014-Oct-20 05:32N 40°36' W 073°49'4 2.7
2014-Oct-20 04:06N 40°38' W 073°45'  
Track history (hours):
 
Tides and Currents Weather Stations Pressure Air Temp Water Temp Dewpoint Dewpoint Depression Visibility Wind Speed Wind Dir Waves Ship Positions

Emerald Coast

Owner: Dann Marine Towing, LC, Chesapeake City, MD. More information available from US FCC via Universal Licensing System and Coast Guard Vessel Documentation Center.

Last reported at 2014-Oct-30 01:34 UTC. Time now 2014-Oct-30 13:06 UTC.
Position N 40°39' W 074°02'.

; draft 3 m.

Type: Towing. MMSI: 367097920.

Date/timePositionNaut miles runAvg speedWind from/ knotsBaromVisibWave heightAir tempDewpointWater temp
2014-Oct-30 01:34N 40°39' W 074°02'4 4.2
2014-Oct-30 00:33N 40°42' W 073°59'8 6.6
2014-Oct-29 23:25N 40°48' W 073°52'10 4.4
2014-Oct-29 21:09N 40°51' W 073°40'1 0.1
2014-Oct-29 02:34N 40°52' W 073°41'0 0.0
2014-Oct-29 01:32N 40°52' W 073°41'0 0.0
2014-Oct-29 00:33N 40°52' W 073°41'0 0.0
2014-Oct-28 23:33N 40°52' W 073°41'0 0.0
2014-Oct-28 22:33N 40°52' W 073°41'3 0.9
2014-Oct-28 19:32N 40°52' W 073°45'5 4.5
2014-Oct-28 18:26N 40°48' W 073°49'4 4.8
2014-Oct-28 17:33N 40°47' W 073°55'4 4.5
2014-Oct-28 16:33N 40°43' W 073°58'5 5.0
2014-Oct-28 15:34N 40°39' W 074°02'5 5.3
2014-Oct-28 14:33N 40°34' W 074°00'5 5.1
2014-Oct-28 13:33N 40°34' W 073°54'5 4.5
2014-Oct-28 12:34N 40°36' W 073°48'3 2.8
2014-Oct-28 11:28N 40°38' W 073°45'0 0.0
2014-Oct-28 10:34N 40°38' W 073°45'0 0.0
2014-Oct-28 09:30N 40°38' W 073°45'0 0.0
2014-Oct-28 08:33N 40°38' W 073°45'0 0.0
2014-Oct-28 07:34N 40°38' W 073°45'0 0.0
2014-Oct-28 06:33N 40°38' W 073°45'0 0.0
2014-Oct-28 05:34N 40°38' W 073°45'0 0.0
2014-Oct-28 04:33N 40°38' W 073°45'0 0.0
2014-Oct-28 03:33N 40°38' W 073°45'0 0.0
2014-Oct-28 01:28N 40°38' W 073°45'0 0.0
2014-Oct-28 00:24N 40°38' W 073°45'0 0.0
2014-Oct-27 23:28N 40°38' W 073°45'0 0.0
2014-Oct-27 21:33N 40°38' W 073°45'0 0.0
2014-Oct-27 20:18N 40°38' W 073°45'0 0.0
2014-Oct-27 19:20N 40°38' W 073°45'0 0.0
2014-Oct-27 18:24N 40°38' W 073°45'0 0.0
2014-Oct-27 17:24N 40°38' W 073°45'5 2.6
2014-Oct-27 15:28N 40°35' W 073°51'5 4.0
2014-Oct-27 14:14N 40°34' W 073°57'3 4.8
2014-Oct-27 13:33N 40°34' W 074°01'5 4.8
2014-Oct-27 12:33N 40°39' W 074°03'2 1.6
2014-Oct-27 11:33N 40°40' W 074°04'0 0.0
2014-Oct-27 10:33N 40°40' W 074°04'0 0.0
2014-Oct-27 09:33N 40°40' W 074°04'0 0.0
2014-Oct-27 08:33N 40°40' W 074°04'0 0.0
2014-Oct-27 07:33N 40°40' W 074°04'0 0.0
2014-Oct-27 06:33N 40°40' W 074°04'0 0.0
2014-Oct-27 05:33N 40°40' W 074°04'0 0.0
2014-Oct-27 04:33N 40°40' W 074°04'0 0.0
2014-Oct-27 03:33N 40°40' W 074°04'0 0.0
2014-Oct-27 02:33N 40°40' W 074°04'0 0.5
2014-Oct-27 01:33N 40°40' W 074°05'0 0.0
2014-Oct-27 00:33N 40°40' W 074°05'3 2.8
2014-Oct-26 23:33N 40°40' W 074°01'2 1.9
2014-Oct-26 22:33N 40°39' W 074°03'0 0.0
2014-Oct-26 21:33N 40°39' W 074°03'0 0.0
2014-Oct-26 20:33N 40°39' W 074°03'0 0.0
2014-Oct-26 19:33N 40°39' W 074°03'0 0.0
2014-Oct-26 18:33N 40°39' W 074°03'0 0.0
2014-Oct-26 17:33N 40°39' W 074°03'3 2.8
2014-Oct-26 16:33N 40°39' W 074°06'2 0.9
2014-Oct-26 14:32N 40°39' W 074°09'2 2.1
2014-Oct-26 13:33N 40°41' W 074°09'1 1.4
2014-Oct-26 12:33N 40°40' W 074°09'3 2.9
2014-Oct-26 11:33N 40°39' W 074°05'0 0.2
2014-Oct-26 10:33N 40°39' W 074°05'0 0.0
2014-Oct-26 09:33N 40°39' W 074°05'1 1.2
2014-Oct-26 08:33N 40°39' W 074°07'3 3.1
2014-Oct-26 07:33N 40°41' W 074°09'0 0.0
2014-Oct-26 06:07N 40°41' W 074°09'0 0.0
2014-Oct-26 05:32N 40°41' W 074°09'0 0.0
2014-Oct-26 03:31N 40°41' W 074°09'0 0.0
2014-Oct-26 02:33N 40°41' W 074°09'0 0.0
2014-Oct-26 01:33N 40°41' W 074°09'1 0.1
2014-Oct-25 21:28N 40°41' W 074°09'4 3.4
2014-Oct-25 20:24N 40°39' W 074°05'3 3.3
2014-Oct-25 19:26N 40°40' W 074°00'5 2.5
2014-Oct-25 17:17N 40°39' W 074°07'3 1.9
2014-Oct-25 15:33N 40°38' W 074°12'1 0.4
2014-Oct-25 14:07N 40°38' W 074°12'1 2.2
2014-Oct-25 13:33N 40°39' W 074°11'3 2.4
2014-Oct-25 12:14N 40°39' W 074°07'1 1.6
2014-Oct-25 11:33N 40°39' W 074°06'3 3.1
2014-Oct-25 10:33N 40°41' W 074°02'5 4.9
2014-Oct-25 09:33N 40°45' W 073°58'5 5.2
2014-Oct-25 08:33N 40°48' W 073°53'5 5.5
2014-Oct-25 07:33N 40°50' W 073°46'4 4.2
2014-Oct-25 06:33N 40°53' W 073°42'1 0.0
2014-Oct-24 13:19N 40°52' W 073°41'9 0.4
2014-Oct-23 13:32N 40°48' W 073°52'5 5.5
2014-Oct-23 12:33N 40°45' W 073°58'4 4.0
2014-Oct-23 11:33N 40°41' W 074°00'3 2.8
2014-Oct-23 10:33N 40°39' W 074°02'3 3.4
2014-Oct-23 09:33N 40°39' W 074°07'4 4.2
2014-Oct-23 08:33N 40°38' W 074°12'0 0.1
2014-Oct-23 07:33N 40°38' W 074°12'6 0.6
2014-Oct-22 22:33N 40°39' W 074°05'2 1.7
2014-Oct-22 21:33N 40°39' W 074°07'3 2.7
2014-Oct-22 20:33N 40°41' W 074°09'1 0.6
2014-Oct-22 19:33N 40°41' W 074°10'0 0.0
2014-Oct-22 18:33N 40°41' W 074°10'0 0.0
2014-Oct-22 17:33N 40°41' W 074°10'0 0.0
2014-Oct-22 16:33N 40°41' W 074°10'0 0.0
2014-Oct-22 15:33N 40°41' W 074°10'0 0.0
2014-Oct-22 14:33N 40°41' W 074°10'0 0.0
2014-Oct-22 13:33N 40°41' W 074°10'0 0.0
2014-Oct-22 12:33N 40°41' W 074°10'0 0.0
2014-Oct-22 11:33N 40°41' W 074°10'0 0.0
2014-Oct-22 10:33N 40°41' W 074°10'0 0.0
2014-Oct-22 09:33N 40°41' W 074°10'3 3.0
2014-Oct-22 08:33N 40°39' W 074°08'1 0.4
2014-Oct-22 07:11N 40°39' W 074°07'0 0.0
2014-Oct-22 06:33N 40°39' W 074°07'0 0.0
2014-Oct-22 05:10N 40°39' W 074°07'0 0.0
2014-Oct-22 03:06N 40°39' W 074°07'0 0.0
2014-Oct-22 02:33N 40°39' W 074°07'0 0.0
2014-Oct-22 01:33N 40°39' W 074°07'0 0.0
2014-Oct-22 00:33N 40°39' W 074°07'0 0.0
2014-Oct-21 23:33N 40°39' W 074°07'1 1.3
2014-Oct-21 22:33N 40°39' W 074°05'2 2.4
2014-Oct-21 21:33N 40°40' W 074°03'0 0.0
2014-Oct-21 20:33N 40°40' W 074°03'0 0.1
2014-Oct-21 19:33N 40°40' W 074°03'2 1.9
2014-Oct-21 18:33N 40°40' W 074°00'0 0.0
2014-Oct-21 17:33N 40°40' W 074°00'0 0.0
2014-Oct-21 16:33N 40°40' W 074°00'0 0.3
2014-Oct-21 15:33N 40°40' W 074°00'0 0.3
2014-Oct-21 14:33N 40°40' W 074°00'0 0.0
2014-Oct-21 13:33N 40°40' W 074°00'0 0.3
2014-Oct-21 12:33N 40°40' W 074°00'0 0.0
2014-Oct-21 11:33N 40°40' W 074°00'0 0.0
2014-Oct-21 10:33N 40°40' W 074°00'0 0.0
2014-Oct-21 09:33N 40°40' W 074°00'1 0.6
2014-Oct-21 08:33N 40°40' W 074°01'5 5.4
2014-Oct-21 07:33N 40°39' W 074°08'3 2.8
2014-Oct-21 06:31N 40°41' W 074°09'0 0.0
2014-Oct-21 05:23N 40°41' W 074°09'0 0.0
2014-Oct-21 04:33N 40°41' W 074°09'0 0.0
2014-Oct-21 02:31N 40°41' W 074°09'0 0.0
2014-Oct-21 01:29N 40°41' W 074°09'0 0.0
2014-Oct-21 00:30N 40°41' W 074°09'0 0.0
2014-Oct-20 22:32N 40°41' W 074°09'0 0.0
2014-Oct-20 20:04N 40°41' W 074°09'0 0.0
2014-Oct-20 19:29N 40°41' W 074°09'0 0.0
2014-Oct-20 18:26N 40°41' W 074°09'1 1.4
2014-Oct-20 17:33N 40°40' W 074°08'2 0.3
2014-Oct-20 10:30N 40°39' W 074°07'4 4.7
2014-Oct-20 09:33N 40°36' W 074°12'3 3.5
2014-Oct-20 08:33N 40°39' W 074°09'6 5.8
2014-Oct-20 07:33N 40°36' W 074°02'5 5.3
2014-Oct-20 06:33N 40°34' W 073°56'5 5.3
2014-Oct-20 05:32N 40°36' W 073°49'4 2.7
2014-Oct-20 04:06N 40°38' W 073°45'  

Dump ship's entire track history